Nancy M — WDF3398 — position and weather

sailwx.info

Track history (hours):
 
Tides and Currents Weather Stations Pressure Air Temp Water Temp Dewpoint Dewpoint Depression Visibility Wind Speed Wind Dir Waves Ship Positions

Nancy M

Owner: MANSON CONSTRUCTION CO., SEATTLE, WA. More information available from US FCC via Universal Licensing System and Coast Guard Vessel Documentation Center.

Last reported at 2015-Feb-27 22:31 UTC. Time now 2015-Feb-27 22:43 UTC.
Position N 47°33' W 122°20'.

Length 24 m; draft 4 m.

Type: Tug. MMSI: 367439390.

Date/timePositionNaut miles runAvg speedWind from/ knotsBaromVisibWave heightAir tempDewpointWater temp
2015-Feb-27 22:31N 47°33' W 122°20'0 0.0
2015-Feb-27 21:26N 47°33' W 122°20'0 0.0
2015-Feb-27 17:20N 47°33' W 122°20'0 0.0
2015-Feb-27 15:43N 47°33' W 122°20'0 0.3
2015-Feb-27 15:33N 47°33' W 122°21'0 0.0
2015-Feb-27 13:12N 47°33' W 122°20'0 0.0
2015-Feb-27 12:22N 47°33' W 122°20'0 0.0
2015-Feb-27 12:06N 47°33' W 122°20'0 0.0
2015-Feb-27 11:24N 47°33' W 122°20'0 0.0
2015-Feb-27 07:23N 47°33' W 122°20'0 0.0
2015-Feb-27 06:23N 47°33' W 122°20'0 0.0
2015-Feb-27 05:29N 47°33' W 122°20'0 0.0
2015-Feb-27 04:32N 47°33' W 122°20'0 0.0
2015-Feb-27 03:04N 47°33' W 122°20'0 0.0
2015-Feb-27 01:29N 47°33' W 122°20'0 0.0
2015-Feb-27 00:32N 47°33' W 122°20'0 0.0
2015-Feb-26 23:33N 47°33' W 122°20'0 0.0
2015-Feb-26 22:32N 47°33' W 122°20'0 0.0
2015-Feb-26 22:04N 47°33' W 122°20'0 0.0
2015-Feb-26 21:28N 47°33' W 122°20'3 5.9
2015-Feb-26 20:59N 47°36' W 122°21'1 2.9
2015-Feb-26 20:32N 47°35' W 122°22'2 3.3
2015-Feb-26 19:59N 47°33' W 122°20'0 0.0
2015-Feb-26 19:33N 47°33' W 122°20'1 3.6
2015-Feb-26 19:13N 47°34' W 122°21'2 3.0
2015-Feb-26 18:33N 47°36' W 122°21'1 1.3
2015-Feb-26 17:44N 47°36' W 122°21'1 7.4
2015-Feb-26 17:33N 47°34' W 122°21'0 6.6
2015-Feb-26 17:29N 47°34' W 122°21'0 0.5
2015-Feb-26 16:31N 47°33' W 122°21'0 0.0
2015-Feb-26 16:08N 47°33' W 122°21'0 0.0
2015-Feb-26 15:33N 47°33' W 122°21'1 5.0
2015-Feb-26 15:18N 47°34' W 122°21'0 0.4
2015-Feb-26 14:33N 47°35' W 122°22'0 0.0
2015-Feb-26 14:33N 47°35' W 122°22'2 1.5
2015-Feb-26 13:33N 47°33' W 122°21'0 0.0
2015-Feb-26 13:33N 47°33' W 122°21'0 0.0
2015-Feb-26 12:00N 47°33' W 122°21'0 0.0
2015-Feb-26 11:33N 47°33' W 122°21'0 0.1
2015-Feb-26 11:26N 47°33' W 122°21'0 0.0
2015-Feb-26 10:12N 47°33' W 122°21'0 0.0
2015-Feb-26 09:44N 47°33' W 122°21'0 0.0
2015-Feb-26 09:23N 47°33' W 122°21'0 0.0
2015-Feb-26 08:59N 47°33' W 122°21'0 0.0
2015-Feb-26 07:26N 47°33' W 122°21'0 0.0
2015-Feb-26 06:58N 47°33' W 122°21'0 0.0
2015-Feb-26 06:31N 47°33' W 122°21'0 0.0
2015-Feb-26 05:32N 47°33' W 122°21'0 0.0
2015-Feb-26 05:28N 47°33' W 122°21'0 0.0
2015-Feb-26 04:33N 47°33' W 122°21'0 0.0
2015-Feb-26 04:33N 47°33' W 122°21'0 0.0
2015-Feb-26 03:29N 47°33' W 122°21'0 0.0
2015-Feb-26 02:23N 47°33' W 122°21'0 0.0
2015-Feb-26 01:33N 47°33' W 122°21'0 0.0
2015-Feb-26 00:43N 47°33' W 122°21'0 0.0
2015-Feb-26 00:32N 47°33' W 122°21'0 0.0
2015-Feb-26 00:28N 47°33' W 122°21'0 0.0
2015-Feb-25 23:33N 47°33' W 122°21'0 0.0
2015-Feb-25 23:32N 47°33' W 122°21'0 0.0
2015-Feb-25 22:33N 47°33' W 122°21'0 0.0
2015-Feb-25 22:22N 47°33' W 122°21'0 0.1
2015-Feb-25 21:32N 47°33' W 122°20'0 0.0
2015-Feb-25 21:17N 47°33' W 122°20'0 0.1
2015-Feb-25 20:33N 47°33' W 122°21'0 0.0
2015-Feb-25 20:21N 47°33' W 122°21'0 0.0
2015-Feb-25 19:30N 47°33' W 122°21'0 0.0
2015-Feb-25 19:02N 47°33' W 122°21'0 0.0
2015-Feb-25 18:33N 47°33' W 122°21'0 0.0
2015-Feb-25 18:01N 47°33' W 122°21'0 0.0
2015-Feb-25 17:34N 47°33' W 122°21'0 0.8
2015-Feb-25 17:21N 47°33' W 122°21'0 0.2
2015-Feb-25 16:32N 47°33' W 122°21'0 0.0
2015-Feb-25 16:25N 47°33' W 122°21'0 0.0
2015-Feb-25 15:29N 47°33' W 122°21'0 0.0
2015-Feb-25 15:29N 47°33' W 122°21'0 0.0
2015-Feb-25 14:29N 47°33' W 122°21'0 0.0
2015-Feb-25 14:29N 47°33' W 122°21'0 0.0
2015-Feb-25 13:05N 47°33' W 122°21'0 0.0
2015-Feb-25 12:33N 47°33' W 122°21'0 0.0
2015-Feb-25 10:08N 47°33' W 122°21'0 0.0
2015-Feb-25 08:47N 47°33' W 122°21'0 0.0
2015-Feb-25 08:33N 47°33' W 122°21'0 0.0
2015-Feb-25 08:33N 47°33' W 122°21'0 0.0
2015-Feb-25 07:32N 47°33' W 122°21'0 0.0
2015-Feb-25 07:32N 47°33' W 122°21'0 0.0
2015-Feb-25 06:23N 47°33' W 122°21'0 0.0
2015-Feb-25 05:12N 47°33' W 122°21'0 0.0
2015-Feb-25 05:12N 47°33' W 122°21'0 0.0
2015-Feb-25 01:31N 47°33' W 122°21'0 0.0
2015-Feb-25 00:53N 47°33' W 122°21'0 0.0
2015-Feb-24 22:57N 47°33' W 122°21'0 0.0
2015-Feb-24 22:24N 47°33' W 122°21'0 0.0
2015-Feb-24 21:32N 47°33' W 122°21'0 0.0
2015-Feb-24 21:18N 47°33' W 122°21'0 0.0
2015-Feb-24 20:33N 47°33' W 122°21'0 0.0
2015-Feb-24 19:33N 47°33' W 122°21'0 0.0
2015-Feb-24 19:16N 47°33' W 122°21'0 0.0
2015-Feb-24 18:33N 47°33' W 122°21'1 1.1
2015-Feb-24 17:56N 47°34' W 122°21'1 1.7
2015-Feb-24 17:33N 47°33' W 122°21'0 0.0
2015-Feb-24 16:32N 47°33' W 122°21'0 0.0
2015-Feb-24 15:41N 47°33' W 122°21'0 0.0
2015-Feb-24 14:28N 47°33' W 122°21'0 0.0
2015-Feb-24 14:10N 47°33' W 122°21'0 0.0
2015-Feb-24 13:33N 47°33' W 122°21'0 0.0
2015-Feb-24 12:49N 47°33' W 122°21'0 0.0
2015-Feb-24 12:25N 47°33' W 122°21'0 0.0
2015-Feb-24 11:54N 47°33' W 122°21'0 0.0
2015-Feb-24 11:04N 47°33' W 122°21'0 0.0
2015-Feb-24 10:28N 47°33' W 122°21'0 0.0
2015-Feb-24 09:30N 47°33' W 122°21'0 0.0
2015-Feb-24 08:30N 47°33' W 122°21'0 0.0
2015-Feb-24 07:33N 47°33' W 122°21'0 0.0
2015-Feb-24 06:27N 47°33' W 122°21'0 0.0
2015-Feb-24 04:10N 47°33' W 122°21'0 0.0
2015-Feb-24 02:04N 47°33' W 122°21'0 0.0
2015-Feb-24 01:47N 47°33' W 122°21'0 0.0
2015-Feb-24 01:32N 47°33' W 122°21'0 0.0
2015-Feb-24 01:22N 47°33' W 122°21'0 0.0
2015-Feb-24 00:30N 47°33' W 122°21'0 0.0
2015-Feb-23 23:33N 47°33' W 122°21'0 0.0
2015-Feb-23 22:33N 47°33' W 122°21'0 0.0
2015-Feb-23 21:10N 47°33' W 122°21'0 0.0
2015-Feb-23 20:31N 47°33' W 122°21'0 0.0
2015-Feb-23 20:30N 47°33' W 122°21'0 0.0
2015-Feb-23 19:32N 47°33' W 122°21'0 0.0
2015-Feb-23 19:19N 47°33' W 122°21'0 0.0
2015-Feb-23 18:33N 47°33' W 122°21'0 0.0
2015-Feb-23 17:44N 47°33' W 122°21'0 0.0
2015-Feb-23 16:38N 47°33' W 122°21'0 0.0
2015-Feb-23 16:17N 47°33' W 122°21'0 0.0
2015-Feb-23 15:33N 47°33' W 122°21'0 0.0
2015-Feb-23 15:31N 47°33' W 122°21'0 0.0
2015-Feb-23 14:33N 47°33' W 122°21'0 0.0
2015-Feb-23 14:33N 47°33' W 122°21'0 0.0
2015-Feb-23 13:25N 47°33' W 122°21'0 0.0
2015-Feb-23 13:13N 47°33' W 122°21'0 0.0
2015-Feb-23 12:33N 47°33' W 122°21'0 0.0
2015-Feb-23 12:33N 47°33' W 122°21'0 0.0
2015-Feb-23 11:33N 47°33' W 122°21'0 0.0
2015-Feb-23 11:33N 47°33' W 122°21'0 0.0
2015-Feb-23 10:33N 47°33' W 122°21'0 0.0
2015-Feb-23 10:33N 47°33' W 122°21'0 0.0
2015-Feb-23 09:32N 47°33' W 122°21'0 0.0
2015-Feb-23 09:32N 47°33' W 122°21'0 0.0
2015-Feb-23 08:33N 47°33' W 122°21'0 0.0
2015-Feb-23 08:32N 47°33' W 122°21'0 0.0
2015-Feb-23 07:33N 47°33' W 122°21'0 0.0
2015-Feb-23 07:28N 47°33' W 122°21'0 0.0
2015-Feb-23 06:57N 47°33' W 122°21'0 0.0
2015-Feb-23 06:33N 47°33' W 122°21'0 0.0
2015-Feb-23 05:33N 47°33' W 122°21'0 0.0
2015-Feb-23 05:32N 47°33' W 122°21'0 0.0
2015-Feb-23 04:33N 47°33' W 122°21'0 0.0
2015-Feb-23 04:31N 47°33' W 122°21'0 0.0
2015-Feb-23 03:33N 47°33' W 122°21'0 0.0
2015-Feb-23 03:31N 47°33' W 122°21'0 0.0
2015-Feb-23 02:33N 47°33' W 122°21'0 0.0
2015-Feb-23 02:31N 47°33' W 122°21'0 0.0
2015-Feb-23 01:33N 47°33' W 122°21'0 0.0
2015-Feb-23 01:30N 47°33' W 122°21'0 0.0
2015-Feb-23 00:33N 47°33' W 122°21'0 0.0
2015-Feb-23 00:31N 47°33' W 122°21'0 0.0
2015-Feb-22 23:33N 47°33' W 122°21'0 0.0
2015-Feb-22 22:33N 47°33' W 122°21'0 0.0
2015-Feb-22 22:32N 47°33' W 122°21'0 0.0
2015-Feb-22 21:33N 47°33' W 122°21'0 0.0
2015-Feb-22 21:32N 47°33' W 122°21'0 0.0
2015-Feb-22 20:33N 47°33' W 122°21'0 0.0
2015-Feb-22 20:32N 47°33' W 122°21'0 0.0
2015-Feb-22 19:33N 47°33' W 122°21'0 0.0
2015-Feb-22 19:32N 47°33' W 122°21'0 0.0
2015-Feb-22 18:33N 47°33' W 122°21'0 0.0
2015-Feb-22 18:32N 47°33' W 122°21'0 0.0
2015-Feb-22 17:32N 47°33' W 122°21'0 0.0
2015-Feb-22 17:16N 47°33' W 122°21'0 0.0
2015-Feb-22 16:33N 47°33' W 122°21'0 0.0
2015-Feb-22 16:31N 47°33' W 122°21'0 0.0
2015-Feb-22 15:32N 47°33' W 122°21'0 0.0
2015-Feb-22 15:26N 47°33' W 122°21'0 0.0
2015-Feb-22 14:33N 47°33' W 122°21'0 0.1
2015-Feb-22 14:30N 47°33' W 122°21'0 0.0
2015-Feb-22 13:33N 47°33' W 122°21'0 0.0
2015-Feb-22 13:31N 47°33' W 122°21'0 0.0
2015-Feb-22 12:32N 47°33' W 122°21'0 0.0
2015-Feb-22 12:20N 47°33' W 122°21'0 0.0
2015-Feb-22 11:33N 47°33' W 122°21'0 0.0
2015-Feb-22 11:30N 47°33' W 122°21'0 0.0
2015-Feb-22 10:29N 47°33' W 122°21'0 0.0
2015-Feb-22 10:19N 47°33' W 122°21'0 0.0
2015-Feb-22 09:33N 47°33' W 122°21'0 0.0
2015-Feb-22 09:29N 47°33' W 122°21'0 0.0
2015-Feb-22 08:33N 47°33' W 122°21'0 0.0
2015-Feb-22 08:29N 47°33' W 122°21'0 0.0
2015-Feb-22 07:49N 47°33' W 122°21'0 0.0
2015-Feb-22 07:33N 47°33' W 122°21'0 0.0
2015-Feb-22 06:33N 47°33' W 122°21'0 0.0
2015-Feb-22 06:29N 47°33' W 122°21'0 0.0
2015-Feb-22 05:33N 47°33' W 122°21'0 0.0
2015-Feb-22 05:29N 47°33' W 122°21'0 0.0
2015-Feb-22 04:33N 47°33' W 122°21'0 0.0
2015-Feb-22 04:29N 47°33' W 122°21'0 0.0
2015-Feb-22 03:33N 47°33' W 122°21'0 0.0
2015-Feb-22 03:29N 47°33' W 122°21'0 0.0
2015-Feb-22 02:33N 47°33' W 122°21'0 0.1
2015-Feb-22 02:29N 47°33' W 122°21'0 0.0
2015-Feb-22 01:34N 47°33' W 122°21'0 0.0
2015-Feb-22 01:33N 47°33' W 122°21'0 0.0
2015-Feb-22 00:33N 47°33' W 122°21'0 0.0
2015-Feb-22 00:28N 47°33' W 122°21'0 0.0
2015-Feb-21 23:33N 47°33' W 122°21'0 0.0
2015-Feb-21 23:33N 47°33' W 122°21'0 0.0
2015-Feb-21 22:33N 47°33' W 122°21'0 0.0
2015-Feb-21 22:32N 47°33' W 122°21'0 0.0
2015-Feb-21 21:33N 47°33' W 122°21'0 0.0
2015-Feb-21 21:32N 47°33' W 122°21'0 0.0
2015-Feb-21 20:33N 47°33' W 122°21'0 0.0
2015-Feb-21 20:32N 47°33' W 122°21'0 0.0
2015-Feb-21 19:33N 47°33' W 122°21'0 0.1
2015-Feb-21 19:31N 47°33' W 122°21'0 0.0
2015-Feb-21 18:33N 47°33' W 122°21'0 0.0
2015-Feb-21 18:31N 47°33' W 122°21'0 0.0
2015-Feb-21 17:33N 47°33' W 122°21'0 0.0
2015-Feb-21 17:31N 47°33' W 122°21'0 0.0
2015-Feb-21 16:33N 47°33' W 122°21'0 0.0
2015-Feb-21 16:31N 47°33' W 122°21'0 0.0
2015-Feb-21 15:33N 47°33' W 122°21'0 0.0
2015-Feb-21 15:30N 47°33' W 122°21'0 0.0
2015-Feb-21 14:32N 47°33' W 122°21'0 0.0
2015-Feb-21 14:31N 47°33' W 122°21'0 0.0
2015-Feb-21 13:33N 47°33' W 122°21'0 0.0
2015-Feb-21 13:31N 47°33' W 122°21'0 0.0
2015-Feb-21 12:33N 47°33' W 122°21'0 0.0
2015-Feb-21 12:30N 47°33' W 122°21'0 0.0
2015-Feb-21 11:33N 47°33' W 122°21'0 0.1
2015-Feb-21 11:30N 47°33' W 122°21'0 0.0
2015-Feb-21 10:33N 47°33' W 122°21'0 0.0
2015-Feb-21 10:30N 47°33' W 122°21'0 0.0
2015-Feb-21 09:33N 47°33' W 122°21'0 0.0
2015-Feb-21 09:29N 47°33' W 122°21'0 0.0
2015-Feb-21 08:33N 47°33' W 122°21'0 0.0
2015-Feb-21 08:29N 47°33' W 122°21'0 0.0
2015-Feb-21 07:33N 47°33' W 122°21'0 0.1
2015-Feb-21 07:29N 47°33' W 122°21'0 0.0
2015-Feb-21 07:05N 47°33' W 122°21'0 0.0
2015-Feb-21 06:32N 47°33' W 122°21'0 0.0
2015-Feb-21 05:33N 47°33' W 122°21'0 0.0
2015-Feb-21 05:29N 47°33' W 122°21'0 0.0
2015-Feb-21 04:33N 47°33' W 122°21'0 0.0
2015-Feb-21 04:29N 47°33' W 122°21'0 0.0
2015-Feb-21 03:34N 47°33' W 122°21'0 0.0
2015-Feb-21 03:33N 47°33' W 122°21'0 0.0
2015-Feb-21 02:33N 47°33' W 122°21'0 0.0
2015-Feb-21 02:29N 47°33' W 122°21'0 0.0
2015-Feb-21 01:33N 47°33' W 122°21'0 0.0
2015-Feb-21 01:28N 47°33' W 122°21'0 0.0
2015-Feb-21 00:33N 47°33' W 122°21'0 0.0
2015-Feb-21 00:29N 47°33' W 122°21'1 0.7
2015-Feb-20 23:33N 47°34' W 122°21'0 6.7
2015-Feb-20 23:29N 47°34' W 122°21'2 2.1
2015-Feb-20 22:33N 47°36' W 122°21'0 0.0
2015-Feb-20 22:33N 47°36' W 122°21'3 2.9
2015-Feb-20 21:33N 47°33' W 122°21'0 0.0
2015-Feb-20 21:33N 47°33' W 122°21'0 0.0
2015-Feb-20 20:34N 47°33' W 122°21'0 0.0
2015-Feb-20 20:33N 47°33' W 122°21'0 0.0
2015-Feb-20 19:32N 47°33' W 122°21'0 0.0
2015-Feb-20 19:27N 47°33' W 122°21'0 0.0
2015-Feb-20 18:33N 47°33' W 122°21'0 0.0
2015-Feb-20 18:27N 47°33' W 122°21'0 0.0
2015-Feb-20 17:32N 47°33' W 122°21'0 0.0
2015-Feb-20 17:32N 47°33' W 122°21'0 0.0
2015-Feb-20 16:33N 47°33' W 122°21'0 0.0
2015-Feb-20 16:32N 47°33' W 122°21'1 0.9
2015-Feb-20 15:33N 47°34' W 122°21'0 7.4
2015-Feb-20 15:32N 47°34' W 122°21'1 0.8
2015-Feb-20 14:33N 47°35' W 122°22'0 7.9
2015-Feb-20 14:32N 47°35' W 122°22'2 1.6
2015-Feb-20 13:33N 47°33' W 122°21'0 0.0
2015-Feb-20 13:32N 47°33' W 122°21'0 0.0
2015-Feb-20 12:33N 47°33' W 122°21'0 0.0
2015-Feb-20 12:32N 47°33' W 122°21'0 0.0
2015-Feb-20 11:33N 47°33' W 122°21'0 0.3
2015-Feb-20 11:32N 47°33' W 122°21'0 0.0
2015-Feb-20 10:33N 47°33' W 122°21'0 0.0
2015-Feb-20 10:31N 47°33' W 122°21'0 0.0
2015-Feb-20 09:33N 47°33' W 122°21'0 0.0
2015-Feb-20 09:31N 47°33' W 122°21'0 0.0
2015-Feb-20 08:33N 47°33' W 122°21'0 0.0
2015-Feb-20 08:31N 47°33' W 122°21'0 0.0
2015-Feb-20 07:29N 47°33' W 122°21'0 0.0
2015-Feb-20 07:21N 47°33' W 122°21'0 0.0
2015-Feb-20 07:01N 47°33' W 122°21'0 0.0
2015-Feb-20 06:32N 47°33' W 122°21'0 0.0
2015-Feb-20 05:33N 47°33' W 122°21'0 0.0
2015-Feb-20 05:05N 47°33' W 122°21'0 0.0
2015-Feb-20 04:33N 47°33' W 122°21'0 0.0
2015-Feb-20 04:30N 47°33' W 122°21'0 0.0
2015-Feb-20 03:29N 47°33' W 122°21'0 0.0
2015-Feb-20 03:29N 47°33' W 122°21'0 0.0
2015-Feb-20 01:43N 47°33' W 122°21'0 0.0
2015-Feb-20 01:33N 47°33' W 122°21'0 0.0
2015-Feb-20 01:33N 47°33' W 122°21'0 0.0
2015-Feb-20 00:33N 47°33' W 122°21'0 0.0
2015-Feb-20 00:33N 47°33' W 122°21'0 0.0
2015-Feb-19 23:33N 47°33' W 122°21'0 0.0
2015-Feb-19 23:33N 47°33' W 122°21'0 0.0
2015-Feb-19 22:32N 47°33' W 122°21'0 0.0
2015-Feb-19 22:32N 47°33' W 122°21'0 0.1
2015-Feb-19 21:33N 47°33' W 122°21'0 4.0
2015-Feb-19 21:33N 47°33' W 122°21'0 0.1
2015-Feb-19 20:33N 47°33' W 122°21'0 0.0
2015-Feb-19 20:33N 47°33' W 122°21'0 0.0
2015-Feb-19 19:03N 47°33' W 122°21'0 0.0
2015-Feb-19 19:00N 47°33' W 122°21'0 0.0
2015-Feb-19 18:33N 47°33' W 122°21'0 0.0
2015-Feb-19 18:30N 47°33' W 122°21'0 0.0
2015-Feb-19 17:24N 47°33' W 122°21'0 0.0
2015-Feb-19 17:23N 47°33' W 122°21'0 0.0
2015-Feb-19 16:33N 47°33' W 122°21'0 0.0
2015-Feb-19 16:29N 47°33' W 122°21'0 0.0
2015-Feb-19 15:33N 47°33' W 122°21'0 0.0
2015-Feb-19 15:29N 47°33' W 122°21'0 0.0
2015-Feb-19 14:33N 47°33' W 122°21'0 0.0
2015-Feb-19 14:29N 47°33' W 122°21'0 0.0
2015-Feb-19 13:33N 47°33' W 122°21'0 0.0
2015-Feb-19 13:28N 47°33' W 122°21'0 0.0
2015-Feb-19 12:33N 47°33' W 122°21'0 0.0
2015-Feb-19 11:47N 47°33' W 122°21'0 0.0
2015-Feb-19 11:33N 47°33' W 122°21'0 0.0
2015-Feb-19 11:32N 47°33' W 122°21'0 0.0
2015-Feb-19 09:52N 47°33' W 122°21'0 0.0
2015-Feb-19 09:33N 47°33' W 122°21'0 0.0
2015-Feb-19 09:32N 47°33' W 122°21'0 0.0
2015-Feb-19 08:33N 47°33' W 122°21'0 0.2
2015-Feb-19 08:31N 47°33' W 122°21'0 0.0
2015-Feb-19 07:32N 47°33' W 122°21'0 0.0
2015-Feb-19 07:31N 47°33' W 122°21'0 0.0
2015-Feb-19 07:01N 47°33' W 122°21'0 0.0
2015-Feb-19 06:33N 47°33' W 122°21'0 0.0
2015-Feb-19 05:31N 47°33' W 122°21'0 0.0
2015-Feb-19 05:03N 47°33' W 122°21'0 0.0
2015-Feb-19 04:34N 47°33' W 122°21'0 0.0
2015-Feb-19 04:33N 47°33' W 122°21'0 0.0
2015-Feb-19 03:33N 47°33' W 122°21'0 0.0
2015-Feb-19 03:33N 47°33' W 122°21'0 0.0
2015-Feb-19 02:33N 47°33' W 122°21'0 0.0
2015-Feb-19 02:33N 47°33' W 122°21'0 0.0
2015-Feb-19 01:32N 47°33' W 122°21'0 0.0
2015-Feb-19 01:28N 47°33' W 122°21'0 0.0
2015-Feb-19 00:29N 47°33' W 122°21'0 0.0
2015-Feb-19 00:17N 47°33' W 122°21'0 0.0
2015-Feb-18 23:33N 47°33' W 122°21'0 0.0
2015-Feb-18 23:32N 47°33' W 122°21'0 0.0
2015-Feb-18 22:17N 47°33' W 122°21'0 0.0
2015-Feb-18 21:39N 47°33' W 122°21'0 0.0
2015-Feb-18 21:33N 47°33' W 122°21'0 0.0
2015-Feb-18 21:30N 47°33' W 122°21'0 0.0
2015-Feb-18 20:33N 47°33' W 122°21'0 0.0
2015-Feb-18 20:29N 47°33' W 122°21'0 0.0
2015-Feb-18 19:33N 47°33' W 122°21'0 0.0
2015-Feb-18 19:29N 47°33' W 122°21'0 0.0
2015-Feb-18 18:33N 47°33' W 122°21'0 0.0
2015-Feb-18 17:32N 47°33' W 122°21'0 0.0
2015-Feb-18 17:11N 47°33' W 122°21'0 0.0
2015-Feb-18 16:33N 47°33' W 122°21'0 0.0
2015-Feb-18 16:31N 47°33' W 122°21'0 0.0
2015-Feb-18 15:33N 47°33' W 122°21'0 0.0
2015-Feb-18 14:32N 47°33' W 122°21'0 0.0
2015-Feb-18 14:28N 47°33' W 122°21'0 0.0
2015-Feb-18 13:33N 47°33' W 122°21'0 0.0
2015-Feb-18 13:29N 47°33' W 122°21'0 0.0
2015-Feb-18 12:33N 47°33' W 122°21'0 0.0
2015-Feb-18 12:29N 47°33' W 122°21'0 0.0
2015-Feb-18 11:33N 47°33' W 122°21'0 0.0
2015-Feb-18 11:29N 47°33' W 122°21'0 0.0
2015-Feb-18 10:33N 47°33' W 122°21'0 0.0
2015-Feb-18 10:28N 47°33' W 122°21'0 0.0
2015-Feb-18 09:33N 47°33' W 122°21'0 0.0
2015-Feb-18 09:33N 47°33' W 122°21'0 0.0
2015-Feb-18 08:33N 47°33' W 122°21'0 0.0
2015-Feb-18 08:33N 47°33' W 122°21'0 0.0
2015-Feb-18 07:33N 47°33' W 122°21'0 0.0
2015-Feb-18 07:33N 47°33' W 122°21'0 0.0
2015-Feb-18 07:02N 47°33' W 122°21'0 0.0
2015-Feb-18 06:33N 47°33' W 122°21'0 0.0
2015-Feb-18 05:33N 47°33' W 122°21'0 0.0
2015-Feb-18 05:33N 47°33' W 122°21'0 0.0
2015-Feb-18 04:33N 47°33' W 122°21'0 0.0
2015-Feb-18 04:32N 47°33' W 122°21'0 0.0
2015-Feb-18 03:33N 47°33' W 122°21'0 0.0
2015-Feb-18 03:32N 47°33' W 122°21'0 0.0
2015-Feb-18 02:33N 47°33' W 122°21'0 0.0
2015-Feb-18 02:32N 47°33' W 122°21'0 0.0
2015-Feb-18 01:30N 47°33' W 122°21'0 0.0
2015-Feb-18 01:26N 47°33' W 122°21'0 0.0
2015-Feb-18 00:33N 47°33' W 122°21'0 0.0
2015-Feb-18 00:31N 47°33' W 122°21'0 0.0
2015-Feb-17 23:33N 47°33' W 122°21'0 0.0
2015-Feb-17 23:31N 47°33' W 122°21'0 0.0
2015-Feb-17 22:33N 47°33' W 122°21'0 0.0
2015-Feb-17 22:31N 47°33' W 122°21'  
Track history (hours):
 
Tides and Currents Weather Stations Pressure Air Temp Water Temp Dewpoint Dewpoint Depression Visibility Wind Speed Wind Dir Waves Ship Positions

Nancy M

Owner: MANSON CONSTRUCTION CO., SEATTLE, WA. More information available from US FCC via Universal Licensing System and Coast Guard Vessel Documentation Center.

Last reported at 2015-Feb-27 22:31 UTC. Time now 2015-Feb-27 22:43 UTC.
Position N 47°33' W 122°20'.

Length 24 m; draft 4 m.

Type: Tug. MMSI: 367439390.

Date/timePositionNaut miles runAvg speedWind from/ knotsBaromVisibWave heightAir tempDewpointWater temp
2015-Feb-27 22:31N 47°33' W 122°20'0 0.0
2015-Feb-27 21:26N 47°33' W 122°20'0 0.0
2015-Feb-27 17:20N 47°33' W 122°20'0 0.0
2015-Feb-27 15:43N 47°33' W 122°20'0 0.3
2015-Feb-27 15:33N 47°33' W 122°21'0 0.0
2015-Feb-27 13:12N 47°33' W 122°20'0 0.0
2015-Feb-27 12:22N 47°33' W 122°20'0 0.0
2015-Feb-27 12:06N 47°33' W 122°20'0 0.0
2015-Feb-27 11:24N 47°33' W 122°20'0 0.0
2015-Feb-27 07:23N 47°33' W 122°20'0 0.0
2015-Feb-27 06:23N 47°33' W 122°20'0 0.0
2015-Feb-27 05:29N 47°33' W 122°20'0 0.0
2015-Feb-27 04:32N 47°33' W 122°20'0 0.0
2015-Feb-27 03:04N 47°33' W 122°20'0 0.0
2015-Feb-27 01:29N 47°33' W 122°20'0 0.0
2015-Feb-27 00:32N 47°33' W 122°20'0 0.0
2015-Feb-26 23:33N 47°33' W 122°20'0 0.0
2015-Feb-26 22:32N 47°33' W 122°20'0 0.0
2015-Feb-26 22:04N 47°33' W 122°20'0 0.0
2015-Feb-26 21:28N 47°33' W 122°20'3 5.9
2015-Feb-26 20:59N 47°36' W 122°21'1 2.9
2015-Feb-26 20:32N 47°35' W 122°22'2 3.3
2015-Feb-26 19:59N 47°33' W 122°20'0 0.0
2015-Feb-26 19:33N 47°33' W 122°20'1 3.6
2015-Feb-26 19:13N 47°34' W 122°21'2 3.0
2015-Feb-26 18:33N 47°36' W 122°21'1 1.3
2015-Feb-26 17:44N 47°36' W 122°21'1 7.4
2015-Feb-26 17:33N 47°34' W 122°21'0 6.6
2015-Feb-26 17:29N 47°34' W 122°21'0 0.5
2015-Feb-26 16:31N 47°33' W 122°21'0 0.0
2015-Feb-26 16:08N 47°33' W 122°21'0 0.0
2015-Feb-26 15:33N 47°33' W 122°21'1 5.0
2015-Feb-26 15:18N 47°34' W 122°21'0 0.4
2015-Feb-26 14:33N 47°35' W 122°22'0 0.0
2015-Feb-26 14:33N 47°35' W 122°22'2 1.5
2015-Feb-26 13:33N 47°33' W 122°21'0 0.0
2015-Feb-26 13:33N 47°33' W 122°21'0 0.0
2015-Feb-26 12:00N 47°33' W 122°21'0 0.0
2015-Feb-26 11:33N 47°33' W 122°21'0 0.1
2015-Feb-26 11:26N 47°33' W 122°21'0 0.0
2015-Feb-26 10:12N 47°33' W 122°21'0 0.0
2015-Feb-26 09:44N 47°33' W 122°21'0 0.0
2015-Feb-26 09:23N 47°33' W 122°21'0 0.0
2015-Feb-26 08:59N 47°33' W 122°21'0 0.0
2015-Feb-26 07:26N 47°33' W 122°21'0 0.0
2015-Feb-26 06:58N 47°33' W 122°21'0 0.0
2015-Feb-26 06:31N 47°33' W 122°21'0 0.0
2015-Feb-26 05:32N 47°33' W 122°21'0 0.0
2015-Feb-26 05:28N 47°33' W 122°21'0 0.0
2015-Feb-26 04:33N 47°33' W 122°21'0 0.0
2015-Feb-26 04:33N 47°33' W 122°21'0 0.0
2015-Feb-26 03:29N 47°33' W 122°21'0 0.0
2015-Feb-26 02:23N 47°33' W 122°21'0 0.0
2015-Feb-26 01:33N 47°33' W 122°21'0 0.0
2015-Feb-26 00:43N 47°33' W 122°21'0 0.0
2015-Feb-26 00:32N 47°33' W 122°21'0 0.0
2015-Feb-26 00:28N 47°33' W 122°21'0 0.0
2015-Feb-25 23:33N 47°33' W 122°21'0 0.0
2015-Feb-25 23:32N 47°33' W 122°21'0 0.0
2015-Feb-25 22:33N 47°33' W 122°21'0 0.0
2015-Feb-25 22:22N 47°33' W 122°21'0 0.1
2015-Feb-25 21:32N 47°33' W 122°20'0 0.0
2015-Feb-25 21:17N 47°33' W 122°20'0 0.1
2015-Feb-25 20:33N 47°33' W 122°21'0 0.0
2015-Feb-25 20:21N 47°33' W 122°21'0 0.0
2015-Feb-25 19:30N 47°33' W 122°21'0 0.0
2015-Feb-25 19:02N 47°33' W 122°21'0 0.0
2015-Feb-25 18:33N 47°33' W 122°21'0 0.0
2015-Feb-25 18:01N 47°33' W 122°21'0 0.0
2015-Feb-25 17:34N 47°33' W 122°21'0 0.8
2015-Feb-25 17:21N 47°33' W 122°21'0 0.2
2015-Feb-25 16:32N 47°33' W 122°21'0 0.0
2015-Feb-25 16:25N 47°33' W 122°21'0 0.0
2015-Feb-25 15:29N 47°33' W 122°21'0 0.0
2015-Feb-25 15:29N 47°33' W 122°21'0 0.0
2015-Feb-25 14:29N 47°33' W 122°21'0 0.0
2015-Feb-25 14:29N 47°33' W 122°21'0 0.0
2015-Feb-25 13:05N 47°33' W 122°21'0 0.0
2015-Feb-25 12:33N 47°33' W 122°21'0 0.0
2015-Feb-25 10:08N 47°33' W 122°21'0 0.0
2015-Feb-25 08:47N 47°33' W 122°21'0 0.0
2015-Feb-25 08:33N 47°33' W 122°21'0 0.0
2015-Feb-25 08:33N 47°33' W 122°21'0 0.0
2015-Feb-25 07:32N 47°33' W 122°21'0 0.0
2015-Feb-25 07:32N 47°33' W 122°21'0 0.0
2015-Feb-25 06:23N 47°33' W 122°21'0 0.0
2015-Feb-25 05:12N 47°33' W 122°21'0 0.0
2015-Feb-25 05:12N 47°33' W 122°21'0 0.0
2015-Feb-25 01:31N 47°33' W 122°21'0 0.0
2015-Feb-25 00:53N 47°33' W 122°21'0 0.0
2015-Feb-24 22:57N 47°33' W 122°21'0 0.0
2015-Feb-24 22:24N 47°33' W 122°21'0 0.0
2015-Feb-24 21:32N 47°33' W 122°21'0 0.0
2015-Feb-24 21:18N 47°33' W 122°21'0 0.0
2015-Feb-24 20:33N 47°33' W 122°21'0 0.0
2015-Feb-24 19:33N 47°33' W 122°21'0 0.0
2015-Feb-24 19:16N 47°33' W 122°21'0 0.0
2015-Feb-24 18:33N 47°33' W 122°21'1 1.1
2015-Feb-24 17:56N 47°34' W 122°21'1 1.7
2015-Feb-24 17:33N 47°33' W 122°21'0 0.0
2015-Feb-24 16:32N 47°33' W 122°21'0 0.0
2015-Feb-24 15:41N 47°33' W 122°21'0 0.0
2015-Feb-24 14:28N 47°33' W 122°21'0 0.0
2015-Feb-24 14:10N 47°33' W 122°21'0 0.0
2015-Feb-24 13:33N 47°33' W 122°21'0 0.0
2015-Feb-24 12:49N 47°33' W 122°21'0 0.0
2015-Feb-24 12:25N 47°33' W 122°21'0 0.0
2015-Feb-24 11:54N 47°33' W 122°21'0 0.0
2015-Feb-24 11:04N 47°33' W 122°21'0 0.0
2015-Feb-24 10:28N 47°33' W 122°21'0 0.0
2015-Feb-24 09:30N 47°33' W 122°21'0 0.0
2015-Feb-24 08:30N 47°33' W 122°21'0 0.0
2015-Feb-24 07:33N 47°33' W 122°21'0 0.0
2015-Feb-24 06:27N 47°33' W 122°21'0 0.0
2015-Feb-24 04:10N 47°33' W 122°21'0 0.0
2015-Feb-24 02:04N 47°33' W 122°21'0 0.0
2015-Feb-24 01:47N 47°33' W 122°21'0 0.0
2015-Feb-24 01:32N 47°33' W 122°21'0 0.0
2015-Feb-24 01:22N 47°33' W 122°21'0 0.0
2015-Feb-24 00:30N 47°33' W 122°21'0 0.0
2015-Feb-23 23:33N 47°33' W 122°21'0 0.0
2015-Feb-23 22:33N 47°33' W 122°21'0 0.0
2015-Feb-23 21:10N 47°33' W 122°21'0 0.0
2015-Feb-23 20:31N 47°33' W 122°21'0 0.0
2015-Feb-23 20:30N 47°33' W 122°21'0 0.0
2015-Feb-23 19:32N 47°33' W 122°21'0 0.0
2015-Feb-23 19:19N 47°33' W 122°21'0 0.0
2015-Feb-23 18:33N 47°33' W 122°21'0 0.0
2015-Feb-23 17:44N 47°33' W 122°21'0 0.0
2015-Feb-23 16:38N 47°33' W 122°21'0 0.0
2015-Feb-23 16:17N 47°33' W 122°21'0 0.0
2015-Feb-23 15:33N 47°33' W 122°21'0 0.0
2015-Feb-23 15:31N 47°33' W 122°21'0 0.0
2015-Feb-23 14:33N 47°33' W 122°21'0 0.0
2015-Feb-23 14:33N 47°33' W 122°21'0 0.0
2015-Feb-23 13:25N 47°33' W 122°21'0 0.0
2015-Feb-23 13:13N 47°33' W 122°21'0 0.0
2015-Feb-23 12:33N 47°33' W 122°21'0 0.0
2015-Feb-23 12:33N 47°33' W 122°21'0 0.0
2015-Feb-23 11:33N 47°33' W 122°21'0 0.0
2015-Feb-23 11:33N 47°33' W 122°21'0 0.0
2015-Feb-23 10:33N 47°33' W 122°21'0 0.0
2015-Feb-23 10:33N 47°33' W 122°21'0 0.0
2015-Feb-23 09:32N 47°33' W 122°21'0 0.0
2015-Feb-23 09:32N 47°33' W 122°21'0 0.0
2015-Feb-23 08:33N 47°33' W 122°21'0 0.0
2015-Feb-23 08:32N 47°33' W 122°21'0 0.0
2015-Feb-23 07:33N 47°33' W 122°21'0 0.0
2015-Feb-23 07:28N 47°33' W 122°21'0 0.0
2015-Feb-23 06:57N 47°33' W 122°21'0 0.0
2015-Feb-23 06:33N 47°33' W 122°21'0 0.0
2015-Feb-23 05:33N 47°33' W 122°21'0 0.0
2015-Feb-23 05:32N 47°33' W 122°21'0 0.0
2015-Feb-23 04:33N 47°33' W 122°21'0 0.0
2015-Feb-23 04:31N 47°33' W 122°21'0 0.0
2015-Feb-23 03:33N 47°33' W 122°21'0 0.0
2015-Feb-23 03:31N 47°33' W 122°21'0 0.0
2015-Feb-23 02:33N 47°33' W 122°21'0 0.0
2015-Feb-23 02:31N 47°33' W 122°21'0 0.0
2015-Feb-23 01:33N 47°33' W 122°21'0 0.0
2015-Feb-23 01:30N 47°33' W 122°21'0 0.0
2015-Feb-23 00:33N 47°33' W 122°21'0 0.0
2015-Feb-23 00:31N 47°33' W 122°21'0 0.0
2015-Feb-22 23:33N 47°33' W 122°21'0 0.0
2015-Feb-22 22:33N 47°33' W 122°21'0 0.0
2015-Feb-22 22:32N 47°33' W 122°21'0 0.0
2015-Feb-22 21:33N 47°33' W 122°21'0 0.0
2015-Feb-22 21:32N 47°33' W 122°21'0 0.0
2015-Feb-22 20:33N 47°33' W 122°21'0 0.0
2015-Feb-22 20:32N 47°33' W 122°21'0 0.0
2015-Feb-22 19:33N 47°33' W 122°21'0 0.0
2015-Feb-22 19:32N 47°33' W 122°21'0 0.0
2015-Feb-22 18:33N 47°33' W 122°21'0 0.0
2015-Feb-22 18:32N 47°33' W 122°21'0 0.0
2015-Feb-22 17:32N 47°33' W 122°21'0 0.0
2015-Feb-22 17:16N 47°33' W 122°21'0 0.0
2015-Feb-22 16:33N 47°33' W 122°21'0 0.0
2015-Feb-22 16:31N 47°33' W 122°21'0 0.0
2015-Feb-22 15:32N 47°33' W 122°21'0 0.0
2015-Feb-22 15:26N 47°33' W 122°21'0 0.0
2015-Feb-22 14:33N 47°33' W 122°21'0 0.1
2015-Feb-22 14:30N 47°33' W 122°21'0 0.0
2015-Feb-22 13:33N 47°33' W 122°21'0 0.0
2015-Feb-22 13:31N 47°33' W 122°21'0 0.0
2015-Feb-22 12:32N 47°33' W 122°21'0 0.0
2015-Feb-22 12:20N 47°33' W 122°21'0 0.0
2015-Feb-22 11:33N 47°33' W 122°21'0 0.0
2015-Feb-22 11:30N 47°33' W 122°21'0 0.0
2015-Feb-22 10:29N 47°33' W 122°21'0 0.0
2015-Feb-22 10:19N 47°33' W 122°21'0 0.0
2015-Feb-22 09:33N 47°33' W 122°21'0 0.0
2015-Feb-22 09:29N 47°33' W 122°21'0 0.0
2015-Feb-22 08:33N 47°33' W 122°21'0 0.0
2015-Feb-22 08:29N 47°33' W 122°21'0 0.0
2015-Feb-22 07:49N 47°33' W 122°21'0 0.0
2015-Feb-22 07:33N 47°33' W 122°21'0 0.0
2015-Feb-22 06:33N 47°33' W 122°21'0 0.0
2015-Feb-22 06:29N 47°33' W 122°21'0 0.0
2015-Feb-22 05:33N 47°33' W 122°21'0 0.0
2015-Feb-22 05:29N 47°33' W 122°21'0 0.0
2015-Feb-22 04:33N 47°33' W 122°21'0 0.0
2015-Feb-22 04:29N 47°33' W 122°21'0 0.0
2015-Feb-22 03:33N 47°33' W 122°21'0 0.0
2015-Feb-22 03:29N 47°33' W 122°21'0 0.0
2015-Feb-22 02:33N 47°33' W 122°21'0 0.1
2015-Feb-22 02:29N 47°33' W 122°21'0 0.0
2015-Feb-22 01:34N 47°33' W 122°21'0 0.0
2015-Feb-22 01:33N 47°33' W 122°21'0 0.0
2015-Feb-22 00:33N 47°33' W 122°21'0 0.0
2015-Feb-22 00:28N 47°33' W 122°21'0 0.0
2015-Feb-21 23:33N 47°33' W 122°21'0 0.0
2015-Feb-21 23:33N 47°33' W 122°21'0 0.0
2015-Feb-21 22:33N 47°33' W 122°21'0 0.0
2015-Feb-21 22:32N 47°33' W 122°21'0 0.0
2015-Feb-21 21:33N 47°33' W 122°21'0 0.0
2015-Feb-21 21:32N 47°33' W 122°21'0 0.0
2015-Feb-21 20:33N 47°33' W 122°21'0 0.0
2015-Feb-21 20:32N 47°33' W 122°21'0 0.0
2015-Feb-21 19:33N 47°33' W 122°21'0 0.1
2015-Feb-21 19:31N 47°33' W 122°21'0 0.0
2015-Feb-21 18:33N 47°33' W 122°21'0 0.0
2015-Feb-21 18:31N 47°33' W 122°21'0 0.0
2015-Feb-21 17:33N 47°33' W 122°21'0 0.0
2015-Feb-21 17:31N 47°33' W 122°21'0 0.0
2015-Feb-21 16:33N 47°33' W 122°21'0 0.0
2015-Feb-21 16:31N 47°33' W 122°21'0 0.0
2015-Feb-21 15:33N 47°33' W 122°21'0 0.0
2015-Feb-21 15:30N 47°33' W 122°21'0 0.0
2015-Feb-21 14:32N 47°33' W 122°21'0 0.0
2015-Feb-21 14:31N 47°33' W 122°21'0 0.0
2015-Feb-21 13:33N 47°33' W 122°21'0 0.0
2015-Feb-21 13:31N 47°33' W 122°21'0 0.0
2015-Feb-21 12:33N 47°33' W 122°21'0 0.0
2015-Feb-21 12:30N 47°33' W 122°21'0 0.0
2015-Feb-21 11:33N 47°33' W 122°21'0 0.1
2015-Feb-21 11:30N 47°33' W 122°21'0 0.0
2015-Feb-21 10:33N 47°33' W 122°21'0 0.0
2015-Feb-21 10:30N 47°33' W 122°21'0 0.0
2015-Feb-21 09:33N 47°33' W 122°21'0 0.0
2015-Feb-21 09:29N 47°33' W 122°21'0 0.0
2015-Feb-21 08:33N 47°33' W 122°21'0 0.0
2015-Feb-21 08:29N 47°33' W 122°21'0 0.0
2015-Feb-21 07:33N 47°33' W 122°21'0 0.1
2015-Feb-21 07:29N 47°33' W 122°21'0 0.0
2015-Feb-21 07:05N 47°33' W 122°21'0 0.0
2015-Feb-21 06:32N 47°33' W 122°21'0 0.0
2015-Feb-21 05:33N 47°33' W 122°21'0 0.0
2015-Feb-21 05:29N 47°33' W 122°21'0 0.0
2015-Feb-21 04:33N 47°33' W 122°21'0 0.0
2015-Feb-21 04:29N 47°33' W 122°21'0 0.0
2015-Feb-21 03:34N 47°33' W 122°21'0 0.0
2015-Feb-21 03:33N 47°33' W 122°21'0 0.0
2015-Feb-21 02:33N 47°33' W 122°21'0 0.0
2015-Feb-21 02:29N 47°33' W 122°21'0 0.0
2015-Feb-21 01:33N 47°33' W 122°21'0 0.0
2015-Feb-21 01:28N 47°33' W 122°21'0 0.0
2015-Feb-21 00:33N 47°33' W 122°21'0 0.0
2015-Feb-21 00:29N 47°33' W 122°21'1 0.7
2015-Feb-20 23:33N 47°34' W 122°21'0 6.7
2015-Feb-20 23:29N 47°34' W 122°21'2 2.1
2015-Feb-20 22:33N 47°36' W 122°21'0 0.0
2015-Feb-20 22:33N 47°36' W 122°21'3 2.9
2015-Feb-20 21:33N 47°33' W 122°21'0 0.0
2015-Feb-20 21:33N 47°33' W 122°21'0 0.0
2015-Feb-20 20:34N 47°33' W 122°21'0 0.0
2015-Feb-20 20:33N 47°33' W 122°21'0 0.0
2015-Feb-20 19:32N 47°33' W 122°21'0 0.0
2015-Feb-20 19:27N 47°33' W 122°21'0 0.0
2015-Feb-20 18:33N 47°33' W 122°21'0 0.0
2015-Feb-20 18:27N 47°33' W 122°21'0 0.0
2015-Feb-20 17:32N 47°33' W 122°21'0 0.0
2015-Feb-20 17:32N 47°33' W 122°21'0 0.0
2015-Feb-20 16:33N 47°33' W 122°21'0 0.0
2015-Feb-20 16:32N 47°33' W 122°21'1 0.9
2015-Feb-20 15:33N 47°34' W 122°21'0 7.4
2015-Feb-20 15:32N 47°34' W 122°21'1 0.8
2015-Feb-20 14:33N 47°35' W 122°22'0 7.9
2015-Feb-20 14:32N 47°35' W 122°22'2 1.6
2015-Feb-20 13:33N 47°33' W 122°21'0 0.0
2015-Feb-20 13:32N 47°33' W 122°21'0 0.0
2015-Feb-20 12:33N 47°33' W 122°21'0 0.0
2015-Feb-20 12:32N 47°33' W 122°21'0 0.0
2015-Feb-20 11:33N 47°33' W 122°21'0 0.3
2015-Feb-20 11:32N 47°33' W 122°21'0 0.0
2015-Feb-20 10:33N 47°33' W 122°21'0 0.0
2015-Feb-20 10:31N 47°33' W 122°21'0 0.0
2015-Feb-20 09:33N 47°33' W 122°21'0 0.0
2015-Feb-20 09:31N 47°33' W 122°21'0 0.0
2015-Feb-20 08:33N 47°33' W 122°21'0 0.0
2015-Feb-20 08:31N 47°33' W 122°21'0 0.0
2015-Feb-20 07:29N 47°33' W 122°21'0 0.0
2015-Feb-20 07:21N 47°33' W 122°21'0 0.0
2015-Feb-20 07:01N 47°33' W 122°21'0 0.0
2015-Feb-20 06:32N 47°33' W 122°21'0 0.0
2015-Feb-20 05:33N 47°33' W 122°21'0 0.0
2015-Feb-20 05:05N 47°33' W 122°21'0 0.0
2015-Feb-20 04:33N 47°33' W 122°21'0 0.0
2015-Feb-20 04:30N 47°33' W 122°21'0 0.0
2015-Feb-20 03:29N 47°33' W 122°21'0 0.0
2015-Feb-20 03:29N 47°33' W 122°21'0 0.0
2015-Feb-20 01:43N 47°33' W 122°21'0 0.0
2015-Feb-20 01:33N 47°33' W 122°21'0 0.0
2015-Feb-20 01:33N 47°33' W 122°21'0 0.0
2015-Feb-20 00:33N 47°33' W 122°21'0 0.0
2015-Feb-20 00:33N 47°33' W 122°21'0 0.0
2015-Feb-19 23:33N 47°33' W 122°21'0 0.0
2015-Feb-19 23:33N 47°33' W 122°21'0 0.0
2015-Feb-19 22:32N 47°33' W 122°21'0 0.0
2015-Feb-19 22:32N 47°33' W 122°21'0 0.1
2015-Feb-19 21:33N 47°33' W 122°21'0 4.0
2015-Feb-19 21:33N 47°33' W 122°21'0 0.1
2015-Feb-19 20:33N 47°33' W 122°21'0 0.0
2015-Feb-19 20:33N 47°33' W 122°21'0 0.0
2015-Feb-19 19:03N 47°33' W 122°21'0 0.0
2015-Feb-19 19:00N 47°33' W 122°21'0 0.0
2015-Feb-19 18:33N 47°33' W 122°21'0 0.0
2015-Feb-19 18:30N 47°33' W 122°21'0 0.0
2015-Feb-19 17:24N 47°33' W 122°21'0 0.0
2015-Feb-19 17:23N 47°33' W 122°21'0 0.0
2015-Feb-19 16:33N 47°33' W 122°21'0 0.0
2015-Feb-19 16:29N 47°33' W 122°21'0 0.0
2015-Feb-19 15:33N 47°33' W 122°21'0 0.0
2015-Feb-19 15:29N 47°33' W 122°21'0 0.0
2015-Feb-19 14:33N 47°33' W 122°21'0 0.0
2015-Feb-19 14:29N 47°33' W 122°21'0 0.0
2015-Feb-19 13:33N 47°33' W 122°21'0 0.0
2015-Feb-19 13:28N 47°33' W 122°21'0 0.0
2015-Feb-19 12:33N 47°33' W 122°21'0 0.0
2015-Feb-19 11:47N 47°33' W 122°21'0 0.0
2015-Feb-19 11:33N 47°33' W 122°21'0 0.0
2015-Feb-19 11:32N 47°33' W 122°21'0 0.0
2015-Feb-19 09:52N 47°33' W 122°21'0 0.0
2015-Feb-19 09:33N 47°33' W 122°21'0 0.0
2015-Feb-19 09:32N 47°33' W 122°21'0 0.0
2015-Feb-19 08:33N 47°33' W 122°21'0 0.2
2015-Feb-19 08:31N 47°33' W 122°21'0 0.0
2015-Feb-19 07:32N 47°33' W 122°21'0 0.0
2015-Feb-19 07:31N 47°33' W 122°21'0 0.0
2015-Feb-19 07:01N 47°33' W 122°21'0 0.0
2015-Feb-19 06:33N 47°33' W 122°21'0 0.0
2015-Feb-19 05:31N 47°33' W 122°21'0 0.0
2015-Feb-19 05:03N 47°33' W 122°21'0 0.0
2015-Feb-19 04:34N 47°33' W 122°21'0 0.0
2015-Feb-19 04:33N 47°33' W 122°21'0 0.0
2015-Feb-19 03:33N 47°33' W 122°21'0 0.0
2015-Feb-19 03:33N 47°33' W 122°21'0 0.0
2015-Feb-19 02:33N 47°33' W 122°21'0 0.0
2015-Feb-19 02:33N 47°33' W 122°21'0 0.0
2015-Feb-19 01:32N 47°33' W 122°21'0 0.0
2015-Feb-19 01:28N 47°33' W 122°21'0 0.0
2015-Feb-19 00:29N 47°33' W 122°21'0 0.0
2015-Feb-19 00:17N 47°33' W 122°21'0 0.0
2015-Feb-18 23:33N 47°33' W 122°21'0 0.0
2015-Feb-18 23:32N 47°33' W 122°21'0 0.0
2015-Feb-18 22:17N 47°33' W 122°21'0 0.0
2015-Feb-18 21:39N 47°33' W 122°21'0 0.0
2015-Feb-18 21:33N 47°33' W 122°21'0 0.0
2015-Feb-18 21:30N 47°33' W 122°21'0 0.0
2015-Feb-18 20:33N 47°33' W 122°21'0 0.0
2015-Feb-18 20:29N 47°33' W 122°21'0 0.0
2015-Feb-18 19:33N 47°33' W 122°21'0 0.0
2015-Feb-18 19:29N 47°33' W 122°21'0 0.0
2015-Feb-18 18:33N 47°33' W 122°21'0 0.0
2015-Feb-18 17:32N 47°33' W 122°21'0 0.0
2015-Feb-18 17:11N 47°33' W 122°21'0 0.0
2015-Feb-18 16:33N 47°33' W 122°21'0 0.0
2015-Feb-18 16:31N 47°33' W 122°21'0 0.0
2015-Feb-18 15:33N 47°33' W 122°21'0 0.0
2015-Feb-18 14:32N 47°33' W 122°21'0 0.0
2015-Feb-18 14:28N 47°33' W 122°21'0 0.0
2015-Feb-18 13:33N 47°33' W 122°21'0 0.0
2015-Feb-18 13:29N 47°33' W 122°21'0 0.0
2015-Feb-18 12:33N 47°33' W 122°21'0 0.0
2015-Feb-18 12:29N 47°33' W 122°21'0 0.0
2015-Feb-18 11:33N 47°33' W 122°21'0 0.0
2015-Feb-18 11:29N 47°33' W 122°21'0 0.0
2015-Feb-18 10:33N 47°33' W 122°21'0 0.0
2015-Feb-18 10:28N 47°33' W 122°21'0 0.0
2015-Feb-18 09:33N 47°33' W 122°21'0 0.0
2015-Feb-18 09:33N 47°33' W 122°21'0 0.0
2015-Feb-18 08:33N 47°33' W 122°21'0 0.0
2015-Feb-18 08:33N 47°33' W 122°21'0 0.0
2015-Feb-18 07:33N 47°33' W 122°21'0 0.0
2015-Feb-18 07:33N 47°33' W 122°21'0 0.0
2015-Feb-18 07:02N 47°33' W 122°21'0 0.0
2015-Feb-18 06:33N 47°33' W 122°21'0 0.0
2015-Feb-18 05:33N 47°33' W 122°21'0 0.0
2015-Feb-18 05:33N 47°33' W 122°21'0 0.0
2015-Feb-18 04:33N 47°33' W 122°21'0 0.0
2015-Feb-18 04:32N 47°33' W 122°21'0 0.0
2015-Feb-18 03:33N 47°33' W 122°21'0 0.0
2015-Feb-18 03:32N 47°33' W 122°21'0 0.0
2015-Feb-18 02:33N 47°33' W 122°21'0 0.0
2015-Feb-18 02:32N 47°33' W 122°21'0 0.0
2015-Feb-18 01:30N 47°33' W 122°21'0 0.0
2015-Feb-18 01:26N 47°33' W 122°21'0 0.0
2015-Feb-18 00:33N 47°33' W 122°21'0 0.0
2015-Feb-18 00:31N 47°33' W 122°21'0 0.0
2015-Feb-17 23:33N 47°33' W 122°21'0 0.0
2015-Feb-17 23:31N 47°33' W 122°21'0 0.0
2015-Feb-17 22:33N 47°33' W 122°21'0 0.0
2015-Feb-17 22:31N 47°33' W 122°21'  

Dump ship's entire track history